sensor_id;sensor_type;location;lat;lon;timestamp;pressure;altitude;pressure_sealevel;temperature;humidity
74433;BME280;62865;53.146;23.172;2023-04-01T00:01:34;1004.1;;;10;81.9
74433;BME280;62865;53.146;23.172;2023-04-01T00:06:28;1004.1;;;10.1;81.6
74433;BME280;62865;53.146;23.172;2023-04-01T00:11:15;1004;;;10.1;81.7
74433;BME280;62865;53.146;23.172;2023-04-01T00:16:44;1004;;;10.1;81.4
74433;BME280;62865;53.146;23.172;2023-04-01T00:21:28;1004;;;10.1;81.4
74433;BME280;62865;53.146;23.172;2023-04-01T00:26:32;1004;;;10.1;81.6
74433;BME280;62865;53.146;23.172;2023-04-01T00:31:28;1004;;;10;81.8
74433;BME280;62865;53.146;23.172;2023-04-01T00:36:15;1004;;;10;81.9
74433;BME280;62865;53.146;23.172;2023-04-01T00:41:40;1003.9;;;10;81.8
74433;BME280;62865;53.146;23.172;2023-04-01T00:46:20;1003.9;;;10.1;81.7
74433;BME280;62865;53.146;23.172;2023-04-01T00:51:07;1003.9;;;10;81.8
74433;BME280;62865;53.146;23.172;2023-04-01T00:56:27;1003.8;;;10.1;81.7
74433;BME280;62865;53.146;23.172;2023-04-01T01:01:12;1003.8;;;10;81.8
74433;BME280;62865;53.146;23.172;2023-04-01T01:06:44;1003.7;;;10.1;81.9
74433;BME280;62865;53.146;23.172;2023-04-01T01:11:28;1003.7;;;10.2;81.5
74433;BME280;62865;53.146;23.172;2023-04-01T01:15:59;1003.7;;;10.2;81.5
74433;BME280;62865;53.146;23.172;2023-04-01T01:21:30;1003.7;;;10.3;81.1
74433;BME280;62865;53.146;23.172;2023-04-01T01:26:24;1003.6;;;10.3;80.9
74433;BME280;62865;53.146;23.172;2023-04-01T01:31:43;1003.6;;;10.3;81
74433;BME280;62865;53.146;23.172;2023-04-01T01:36:27;1003.6;;;10.2;81.4
74433;BME280;62865;53.146;23.172;2023-04-01T01:41:07;1003.6;;;10.3;81.5
74433;BME280;62865;53.146;23.172;2023-04-01T01:46:42;1003.5;;;10.3;81.6
74433;BME280;62865;53.146;23.172;2023-04-01T01:51:12;1003.6;;;10.4;81.4
74433;BME280;62865;53.146;23.172;2023-04-01T01:56:34;1003.5;;;10.5;81.2
74433;BME280;62865;53.146;23.172;2023-04-01T02:01:27;1003.5;;;10.5;81.1
74433;BME280;62865;53.146;23.172;2023-04-01T02:06:07;1003.4;;;10.5;81
74433;BME280;62865;53.146;23.172;2023-04-01T02:11:43;1003.4;;;10.4;81.2
74433;BME280;62865;53.146;23.172;2023-04-01T02:16:13;1003.4;;;10.4;81.3
74433;BME280;62865;53.146;23.172;2023-04-01T02:21:34;1003.3;;;10.5;81.2
74433;BME280;62865;53.146;23.172;2023-04-01T02:25:56;1003.3;;;10.4;81.2
74433;BME280;62865;53.146;23.172;2023-04-01T02:30:56;1003.2;;;10.5;81.1
74433;BME280;62865;53.146;23.172;2023-04-01T02:35:58;1003.2;;;10.5;81.1
74433;BME280;62865;53.146;23.172;2023-04-01T02:41:12;1003.1;;;10.5;81.3
74433;BME280;62865;53.146;23.172;2023-04-01T02:46:10;1003;;;10.5;81.2
74433;BME280;62865;53.146;23.172;2023-04-01T02:50:56;1003;;;10.4;81.7
74433;BME280;62865;53.146;23.172;2023-04-01T02:56:06;1003;;;10.3;82
74433;BME280;62865;53.146;23.172;2023-04-01T03:01:42;1002.9;;;10.2;82.1
74433;BME280;62865;53.146;23.172;2023-04-01T03:06:13;1003;;;10.2;82.3
74433;BME280;62865;53.146;23.172;2023-04-01T03:11:34;1003;;;10.3;82.2
74433;BME280;62865;53.146;23.172;2023-04-01T03:16:12;1003;;;10.3;82.1
74433;BME280;62865;53.146;23.172;2023-04-01T03:21:21;1003;;;10.2;82.1
74433;BME280;62865;53.146;23.172;2023-04-01T03:26:42;1003;;;10.2;82.1
74433;BME280;62865;53.146;23.172;2023-04-01T03:31:13;1003;;;10.1;82.2
74433;BME280;62865;53.146;23.172;2023-04-01T03:36:06;1003;;;10;82.5
74433;BME280;62865;53.146;23.172;2023-04-01T03:41:13;1003.1;;;10;82.6
74433;BME280;62865;53.146;23.172;2023-04-01T03:45:56;1003.1;;;10;82.5
74433;BME280;62865;53.146;23.172;2023-04-01T03:51:43;1003.1;;;10;82.8
74433;BME280;62865;53.146;23.172;2023-04-01T03:56:07;1003.1;;;10.1;82.7
74433;BME280;62865;53.146;23.172;2023-04-01T04:01:34;1003.1;;;10.1;82.5
74433;BME280;62865;53.146;23.172;2023-04-01T04:06:13;1003.1;;;10.1;82.7
74433;BME280;62865;53.146;23.172;2023-04-01T04:10:56;1003;;;10.1;82.8
74433;BME280;62865;53.146;23.172;2023-04-01T04:16:42;1003.1;;;10.1;82.8
74433;BME280;62865;53.146;23.172;2023-04-01T04:21:13;1003.1;;;10.2;82.6
74433;BME280;62865;53.146;23.172;2023-04-01T04:26:34;1003.2;;;10.2;82.6
74433;BME280;62865;53.146;23.172;2023-04-01T04:31:13;1003.2;;;10.2;82.6
74433;BME280;62865;53.146;23.172;2023-04-01T04:36:21;1003.1;;;10.2;82.8
74433;BME280;62865;53.146;23.172;2023-04-01T04:41:40;1003.1;;;10.2;82.8
74433;BME280;62865;53.146;23.172;2023-04-01T04:46:12;1003.2;;;10.4;82.5
74433;BME280;62865;53.146;23.172;2023-04-01T04:51:32;1003.2;;;10.4;82.1
74433;BME280;62865;53.146;23.172;2023-04-01T04:56:02;1003.2;;;10.5;82.1
74433;BME280;62865;53.146;23.172;2023-04-01T05:01:20;1003.2;;;10.5;81.9
74433;BME280;62865;53.146;23.172;2023-04-01T05:06:43;1003.2;;;10.6;81.7
74433;BME280;62865;53.146;23.172;2023-04-01T05:11:13;1003.2;;;10.5;81.9
74433;BME280;62865;53.146;23.172;2023-04-01T05:16:34;1003.2;;;10.4;82.3
74433;BME280;62865;53.146;23.172;2023-04-01T05:21:13;1003.2;;;10.3;82.6
74433;BME280;62865;53.146;23.172;2023-04-01T05:26:13;1003.2;;;10.3;82.6
74433;BME280;62865;53.146;23.172;2023-04-01T05:31:42;1003.2;;;10.3;82.9
74433;BME280;62865;53.146;23.172;2023-04-01T05:36:13;1003.3;;;10.4;82.8
74433;BME280;62865;53.146;23.172;2023-04-01T05:41:40;1003.3;;;10.4;82.7
74433;BME280;62865;53.146;23.172;2023-04-01T05:46:26;1003.3;;;10.5;82.7
74433;BME280;62865;53.146;23.172;2023-04-01T05:50:56;1003.3;;;10.5;82.6
74433;BME280;62865;53.146;23.172;2023-04-01T05:56:18;1003.3;;;10.5;82.5
74433;BME280;62865;53.146;23.172;2023-04-01T06:01:20;1003.3;;;10.6;82.4
74433;BME280;62865;53.146;23.172;2023-04-01T06:06:42;1003.2;;;10.7;82.2
74433;BME280;62865;53.146;23.172;2023-04-01T06:11:31;1003.2;;;10.8;82.1
74433;BME280;62865;53.146;23.172;2023-04-01T06:16:07;1003.2;;;10.9;81.7
74433;BME280;62865;53.146;23.172;2023-04-01T06:20:59;1003.2;;;11;81.5
74433;BME280;62865;53.146;23.172;2023-04-01T06:26:23;1003.3;;;11.1;81.4
74433;BME280;62865;53.146;23.172;2023-04-01T06:31:45;1003.3;;;11.1;81.2
74433;BME280;62865;53.146;23.172;2023-04-01T06:36:43;1003.3;;;11.2;81.4
74433;BME280;62865;53.146;23.172;2023-04-01T06:41:00;1003.3;;;11.3;80.9
74433;BME280;62865;53.146;23.172;2023-04-01T06:46:44;1003.3;;;11.3;80.8
74433;BME280;62865;53.146;23.172;2023-04-01T06:50:58;1003.3;;;11.3;80.9
74433;BME280;62865;53.146;23.172;2023-04-01T06:56:44;1003.3;;;11.4;80.7
74433;BME280;62865;53.146;23.172;2023-04-01T07:01:27;1003.3;;;11.5;80.5
74433;BME280;62865;53.146;23.172;2023-04-01T07:06:23;1003.3;;;11.6;80.3
74433;BME280;62865;53.146;23.172;2023-04-01T07:10:58;1003.3;;;11.7;80.1
74433;BME280;62865;53.146;23.172;2023-04-01T07:16:12;1003.3;;;11.8;79.6
74433;BME280;62865;53.146;23.172;2023-04-01T07:20:58;1003.3;;;12;79.5
74433;BME280;62865;53.146;23.172;2023-04-01T07:26:26;1003.3;;;12.1;78.7
74433;BME280;62865;53.146;23.172;2023-04-01T07:31:41;1003.3;;;12.2;78.5
74433;BME280;62865;53.146;23.172;2023-04-01T07:36:21;1003.3;;;12.3;78.6
74433;BME280;62865;53.146;23.172;2023-04-01T07:40:58;1003.3;;;12.3;78.3
74433;BME280;62865;53.146;23.172;2023-04-01T07:46:49;1003.3;;;12.3;78
74433;BME280;62865;53.146;23.172;2023-04-01T07:51:27;1003.4;;;12.4;77.9
74433;BME280;62865;53.146;23.172;2023-04-01T07:56:08;1003.4;;;12.6;77
74433;BME280;62865;53.146;23.172;2023-04-01T08:01:22;1003.4;;;12.6;77.2
74433;BME280;62865;53.146;23.172;2023-04-01T08:06:23;1003.4;;;12.5;77.1
74433;BME280;62865;53.146;23.172;2023-04-01T08:11:46;1003.5;;;12.4;77.2
74433;BME280;62865;53.146;23.172;2023-04-01T08:16:29;1003.5;;;12.3;77.3
74433;BME280;62865;53.146;23.172;2023-04-01T08:20:57;1003.5;;;12.3;77.4
74433;BME280;62865;53.146;23.172;2023-04-01T08:25:58;1003.5;;;12.4;77.5
74433;BME280;62865;53.146;23.172;2023-04-01T08:31:35;1003.6;;;12.3;77.7
74433;BME280;62865;53.146;23.172;2023-04-01T08:36:41;1003.6;;;12.4;77.5
74433;BME280;62865;53.146;23.172;2023-04-01T08:41:38;1003.6;;;12.4;77.2
74433;BME280;62865;53.146;23.172;2023-04-01T08:46:19;1003.6;;;12.4;77.5
74433;BME280;62865;53.146;23.172;2023-04-01T08:51:20;1003.7;;;12.4;77.4
74433;BME280;62865;53.146;23.172;2023-04-01T08:56:01;1003.7;;;12.5;77.3
74433;BME280;62865;53.146;23.172;2023-04-01T09:01:46;1003.7;;;12.6;76.9
74433;BME280;62865;53.146;23.172;2023-04-01T09:06:31;1003.7;;;12.5;77
74433;BME280;62865;53.146;23.172;2023-04-01T09:11:02;1003.8;;;12.7;76.5
74433;BME280;62865;53.146;23.172;2023-04-01T09:16:03;1003.7;;;13.1;75.2
74433;BME280;62865;53.146;23.172;2023-04-01T09:21:13;1003.7;;;13.4;74
74433;BME280;62865;53.146;23.172;2023-04-01T09:26:49;1003.7;;;13.8;72.8
74433;BME280;62865;53.146;23.172;2023-04-01T09:31:29;1003.7;;;14.2;71.7
74433;BME280;62865;53.146;23.172;2023-04-01T09:36:07;1003.7;;;14.5;70.6
74433;BME280;62865;53.146;23.172;2023-04-01T09:40:57;1003.7;;;15;69.2
74433;BME280;62865;53.146;23.172;2023-04-01T09:46:09;1003.8;;;15.5;67.8
74433;BME280;62865;53.146;23.172;2023-04-01T09:51:45;1003.8;;;15.5;66.2
74433;BME280;62865;53.146;23.172;2023-04-01T09:56:37;1003.9;;;15.2;67.9
74433;BME280;62865;53.146;23.172;2023-04-01T10:01:50;1003.9;;;14.9;68.4
74433;BME280;62865;53.146;23.172;2023-04-01T10:07:14;1003.9;;;14.9;68.3
74433;BME280;62865;53.146;23.172;2023-04-01T10:11:13;1004;;;14.4;69.4
74433;BME280;62865;53.146;23.172;2023-04-01T10:17:07;1004;;;14.3;70
74433;BME280;62865;53.146;23.172;2023-04-01T10:21:39;1004;;;14.7;69
74433;BME280;62865;53.146;23.172;2023-04-01T10:26:50;1003.9;;;14.9;68
74433;BME280;62865;53.146;23.172;2023-04-01T10:32:05;1003.9;;;14.8;68.7
74433;BME280;62865;53.146;23.172;2023-04-01T10:36:19;1003.9;;;14.9;68.4
74433;BME280;62865;53.146;23.172;2023-04-01T10:41:46;1003.9;;;14.8;67.8
74433;BME280;62865;53.146;23.172;2023-04-01T10:46:45;1004;;;15.1;66.7
74433;BME280;62865;53.146;23.172;2023-04-01T10:51:32;1004;;;15.3;66.4
74433;BME280;62865;53.146;23.172;2023-04-01T10:56:28;1004;;;15.5;65.3
74433;BME280;62865;53.146;23.172;2023-04-01T11:01:03;1004;;;15.5;65.5
74433;BME280;62865;53.146;23.172;2023-04-01T11:07:01;1004;;;15.4;66.2
74433;BME280;62865;53.146;23.172;2023-04-01T11:11:13;1004.1;;;15.1;66.3
74433;BME280;62865;53.146;23.172;2023-04-01T11:16:47;1004.2;;;14.8;67.9
74433;BME280;62865;53.146;23.172;2023-04-01T11:22:14;1004.2;;;14.3;70.7
74433;BME280;62865;53.146;23.172;2023-04-01T11:26:06;1004.2;;;14;72.7
74433;BME280;62865;53.146;23.172;2023-04-01T11:31:43;1004.2;;;14;73.6
74433;BME280;62865;53.146;23.172;2023-04-01T11:36:28;1004.2;;;14.5;71.7
74433;BME280;62865;53.146;23.172;2023-04-01T11:41:43;1004.2;;;15.2;69.2
74433;BME280;62865;53.146;23.172;2023-04-01T11:45:57;1004.2;;;15.7;66.5
74433;BME280;62865;53.146;23.172;2023-04-01T11:51:16;1004.2;;;15.9;66.2
74433;BME280;62865;53.146;23.172;2023-04-01T11:56:49;1004.2;;;16;65
74433;BME280;62865;53.146;23.172;2023-04-01T12:01:29;1004.2;;;15.9;64.9
74433;BME280;62865;53.146;23.172;2023-04-01T12:06:44;1004.2;;;15.7;65.7
74433;BME280;62865;53.146;23.172;2023-04-01T12:10:58;1004.3;;;15.6;65.8
74433;BME280;62865;53.146;23.172;2023-04-01T12:16:08;1004.3;;;15.5;65.5
74433;BME280;62865;53.146;23.172;2023-04-01T12:21:44;1004.3;;;15.7;65.2
74433;BME280;62865;53.146;23.172;2023-04-01T12:26:15;1004.4;;;15.7;64.9
74433;BME280;62865;53.146;23.172;2023-04-01T12:31:46;1004.4;;;15.8;65.1
74433;BME280;62865;53.146;23.172;2023-04-01T12:36:00;1004.4;;;15.7;65.9
74433;BME280;62865;53.146;23.172;2023-04-01T12:41:03;1004.5;;;15.3;66
74433;BME280;62865;53.146;23.172;2023-04-01T12:46:47;1004.5;;;14.6;66.3
74433;BME280;62865;53.146;23.172;2023-04-01T12:51:36;1004.5;;;14.1;68.7
74433;BME280;62865;53.146;23.172;2023-04-01T12:56:44;1004.5;;;13.9;69.6
74433;BME280;62865;53.146;23.172;2023-04-01T13:01:48;1004.5;;;13.8;71.2
74433;BME280;62865;53.146;23.172;2023-04-01T13:06:13;1004.6;;;13.7;71.4
74433;BME280;62865;53.146;23.172;2023-04-01T13:11:42;1004.7;;;13.5;72.6
74433;BME280;62865;53.146;23.172;2023-04-01T13:16:27;1004.7;;;13.4;73.3
74433;BME280;62865;53.146;23.172;2023-04-01T13:21:45;1004.8;;;13.2;73.7
74433;BME280;62865;53.146;23.172;2023-04-01T13:26:00;1004.8;;;12.9;74.6
74433;BME280;62865;53.146;23.172;2023-04-01T13:30:58;1004.9;;;12.7;75.2
74433;BME280;62865;53.146;23.172;2023-04-01T13:36:48;1004.9;;;12.5;76.7
74433;BME280;62865;53.146;23.172;2023-04-01T13:41:30;1004.9;;;12.5;76.7
74433;BME280;62865;53.146;23.172;2023-04-01T13:46:52;1004.9;;;12.7;76.3
74433;BME280;62865;53.146;23.172;2023-04-01T13:51:11;1005;;;12.9;75.9
74433;BME280;62865;53.146;23.172;2023-04-01T13:56:27;1005;;;13;75.3
74433;BME280;62865;53.146;23.172;2023-04-01T14:01:46;1005;;;13.1;74.8
74433;BME280;62865;53.146;23.172;2023-04-01T14:06:13;1005.1;;;13.1;74.9
74433;BME280;62865;53.146;23.172;2023-04-01T14:11:44;1005.1;;;13.2;74.7
74433;BME280;62865;53.146;23.172;2023-04-01T14:16:13;1005.1;;;13.1;74.5
74433;BME280;62865;53.146;23.172;2023-04-01T14:21:13;1005.1;;;13.2;74.4
74433;BME280;62865;53.146;23.172;2023-04-01T14:26:07;1005.1;;;13.2;74.4
74433;BME280;62865;53.146;23.172;2023-04-01T14:31:48;1005.1;;;13.1;75.2
74433;BME280;62865;53.146;23.172;2023-04-01T14:36:35;1005.1;;;13.2;75.5
74433;BME280;62865;53.146;23.172;2023-04-01T14:41:00;1005.1;;;13.1;75.8
74433;BME280;62865;53.146;23.172;2023-04-01T14:46:17;1005.2;;;13;75.8
74433;BME280;62865;53.146;23.172;2023-04-01T14:51:09;1005.3;;;12.7;76
74433;BME280;62865;53.146;23.172;2023-04-01T14:56:43;1005.3;;;12.4;76.8
74433;BME280;62865;53.146;23.172;2023-04-01T15:01:32;1005.3;;;12.2;77.6
74433;BME280;62865;53.146;23.172;2023-04-01T15:06:48;1005.3;;;12.1;78.6
74433;BME280;62865;53.146;23.172;2023-04-01T15:11:06;1005.4;;;12;79.1
74433;BME280;62865;53.146;23.172;2023-04-01T15:16:09;1005.4;;;11.8;79.9
74433;BME280;62865;53.146;23.172;2023-04-01T15:21:49;1005.5;;;11.5;80.4
74433;BME280;62865;53.146;23.172;2023-04-01T15:26:16;1005.6;;;11.3;80.7
74433;BME280;62865;53.146;23.172;2023-04-01T15:31:09;1005.6;;;11.2;81.1
74433;BME280;62865;53.146;23.172;2023-04-01T15:36:09;1005.7;;;11;81.7
74433;BME280;62865;53.146;23.172;2023-04-01T15:41:27;1005.8;;;10.8;82.7
74433;BME280;62865;53.146;23.172;2023-04-01T15:46:46;1005.9;;;10.7;83.5
74433;BME280;62865;53.146;23.172;2023-04-01T15:51:02;1005.9;;;10.7;83.6
74433;BME280;62865;53.146;23.172;2023-04-01T15:56:10;1006;;;10.7;83.5
74433;BME280;62865;53.146;23.172;2023-04-01T16:01:09;1006;;;10.6;83.6
74433;BME280;62865;53.146;23.172;2023-04-01T16:06:01;1006.1;;;10.6;83.7
74433;BME280;62865;53.146;23.172;2023-04-01T16:11:43;1006.2;;;10.6;83.8
74433;BME280;62865;53.146;23.172;2023-04-01T16:16:31;1006.3;;;10.5;83.6
74433;BME280;62865;53.146;23.172;2023-04-01T16:21:35;1006.4;;;10.4;84.1
74433;BME280;62865;53.146;23.172;2023-04-01T16:26:07;1006.5;;;10.4;84
74433;BME280;62865;53.146;23.172;2023-04-01T16:31:26;1006.5;;;10.4;84
74433;BME280;62865;53.146;23.172;2023-04-01T16:36:45;1006.6;;;10.3;84
74433;BME280;62865;53.146;23.172;2023-04-01T16:41:14;1006.8;;;10.3;83.5
74433;BME280;62865;53.146;23.172;2023-04-01T16:46:05;1006.9;;;10.2;83.3
74433;BME280;62865;53.146;23.172;2023-04-01T16:51:21;1007;;;10.2;83.5
74433;BME280;62865;53.146;23.172;2023-04-01T16:55:58;1007.1;;;10;83.4
74433;BME280;62865;53.146;23.172;2023-04-01T17:01:21;1007.2;;;9.8;83.7
74433;BME280;62865;53.146;23.172;2023-04-01T17:06:24;1007.3;;;9.7;83.6
74433;BME280;62865;53.146;23.172;2023-04-01T17:11:24;1007.4;;;9.5;83.9
74433;BME280;62865;53.146;23.172;2023-04-01T17:16:13;1007.5;;;9.4;84.1
74433;BME280;62865;53.146;23.172;2023-04-01T17:21:13;1007.5;;;9.4;84.5
74433;BME280;62865;53.146;23.172;2023-04-01T17:26:45;1007.6;;;9.3;84.5
74433;BME280;62865;53.146;23.172;2023-04-01T17:31:14;1007.7;;;9.4;84
74433;BME280;62865;53.146;23.172;2023-04-01T17:35:58;1007.7;;;9.3;83.6
74433;BME280;62865;53.146;23.172;2023-04-01T17:41:08;1007.8;;;9.2;83.7
74433;BME280;62865;53.146;23.172;2023-04-01T17:46:10;1007.9;;;9.1;83.5
74433;BME280;62865;53.146;23.172;2023-04-01T17:51:28;1007.9;;;9;83.4
74433;BME280;62865;53.146;23.172;2023-04-01T17:56:02;1008;;;8.8;84
74433;BME280;62865;53.146;23.172;2023-04-01T18:01:17;1008;;;8.8;84.2
74433;BME280;62865;53.146;23.172;2023-04-01T18:06:25;1008.1;;;8.7;84.8
74433;BME280;62865;53.146;23.172;2023-04-01T18:11:21;1008.2;;;8.8;84.3
74433;BME280;62865;53.146;23.172;2023-04-01T18:16:02;1008.2;;;8.8;84.3
74433;BME280;62865;53.146;23.172;2023-04-01T18:21:33;1008.3;;;8.8;83.9
74433;BME280;62865;53.146;23.172;2023-04-01T18:26:43;1008.3;;;8.6;83.4
74433;BME280;62865;53.146;23.172;2023-04-01T18:31:08;1008.4;;;8.5;83.8
74433;BME280;62865;53.146;23.172;2023-04-01T18:36:19;1008.4;;;8.4;83.9
74433;BME280;62865;53.146;23.172;2023-04-01T18:41:55;1008.5;;;8.3;83.7
74433;BME280;62865;53.146;23.172;2023-04-01T18:46:16;1008.6;;;8.3;83.9
74433;BME280;62865;53.146;23.172;2023-04-01T18:51:46;1008.6;;;8.2;83.9
74433;BME280;62865;53.146;23.172;2023-04-01T18:55:59;1008.6;;;8.1;84.3
74433;BME280;62865;53.146;23.172;2023-04-01T19:01:12;1008.7;;;8.1;84.2
74433;BME280;62865;53.146;23.172;2023-04-01T19:06:44;1008.7;;;8.1;84.1
74433;BME280;62865;53.146;23.172;2023-04-01T19:11:31;1008.8;;;8.1;84.3
74433;BME280;62865;53.146;23.172;2023-04-01T19:16:47;1008.9;;;8.1;84.1
74433;BME280;62865;53.146;23.172;2023-04-01T19:21:10;1009;;;8.1;83.8
74433;BME280;62865;53.146;23.172;2023-04-01T19:26:22;1009.1;;;8;83.8
74433;BME280;62865;53.146;23.172;2023-04-01T19:31:50;1009.1;;;8;83.9
74433;BME280;62865;53.146;23.172;2023-04-01T19:36:31;1009.2;;;8;84.1
74433;BME280;62865;53.146;23.172;2023-04-01T19:41:45;1009.2;;;8;84.2
74433;BME280;62865;53.146;23.172;2023-04-01T19:46:10;1009.3;;;8;84
74433;BME280;62865;53.146;23.172;2023-04-01T19:51:36;1009.4;;;8;83.8
74433;BME280;62865;53.146;23.172;2023-04-01T19:56:46;1009.5;;;7.9;83.5
74433;BME280;62865;53.146;23.172;2023-04-01T20:01:28;1009.5;;;7.9;83.3
74433;BME280;62865;53.146;23.172;2023-04-01T20:06:43;1009.6;;;7.8;83.2
74433;BME280;62865;53.146;23.172;2023-04-01T20:11:21;1009.6;;;7.8;83.3
74433;BME280;62865;53.146;23.172;2023-04-01T20:16:17;1009.7;;;7.8;83.2
74433;BME280;62865;53.146;23.172;2023-04-01T20:21:45;1009.8;;;7.7;83.3
74433;BME280;62865;53.146;23.172;2023-04-01T20:26:28;1009.9;;;7.7;83.6
74433;BME280;62865;53.146;23.172;2023-04-01T20:31:41;1009.9;;;7.7;82.7
74433;BME280;62865;53.146;23.172;2023-04-01T20:36:00;1010;;;7.6;82.4
74433;BME280;62865;53.146;23.172;2023-04-01T20:41:20;1010;;;7.5;82.5
74433;BME280;62865;53.146;23.172;2023-04-01T20:46:44;1010.1;;;7.5;82.5
74433;BME280;62865;53.146;23.172;2023-04-01T20:51:03;1010.1;;;7.5;82.6
74433;BME280;62865;53.146;23.172;2023-04-01T20:56:34;1010.2;;;7.5;82.9
74433;BME280;62865;53.146;23.172;2023-04-01T21:01:20;1010.3;;;7.5;82.8
74433;BME280;62865;53.146;23.172;2023-04-01T21:06:13;1010.3;;;7.4;82.5
74433;BME280;62865;53.146;23.172;2023-04-01T21:11:45;1010.4;;;7.3;82.2
74433;BME280;62865;53.146;23.172;2023-04-01T21:16:32;1010.4;;;7.3;82.2
74433;BME280;62865;53.146;23.172;2023-04-01T21:21:46;1010.5;;;7.2;82.1
74433;BME280;62865;53.146;23.172;2023-04-01T21:26:21;1010.5;;;7.2;82.1
74433;BME280;62865;53.146;23.172;2023-04-01T21:31:22;1010.6;;;7.2;81.9
74433;BME280;62865;53.146;23.172;2023-04-01T21:36:45;1010.6;;;7.2;82
74433;BME280;62865;53.146;23.172;2023-04-01T21:41:34;1010.7;;;7.1;82.1
74433;BME280;62865;53.146;23.172;2023-04-01T21:46:48;1010.7;;;7.1;82.1
74433;BME280;62865;53.146;23.172;2023-04-01T21:51:12;1010.7;;;7.2;81.7
74433;BME280;62865;53.146;23.172;2023-04-01T22:01:56;1010.9;;;7.3;81.9
74433;BME280;62865;53.146;23.172;2023-04-01T22:06:27;1010.9;;;7.2;81.8
74433;BME280;62865;53.146;23.172;2023-04-01T22:11:43;1011;;;7.1;81.8
74433;BME280;62865;53.146;23.172;2023-04-01T22:16:09;1011.1;;;7.1;81.5
74433;BME280;62865;53.146;23.172;2023-04-01T22:21:20;1011.1;;;7;81.9
74433;BME280;62865;53.146;23.172;2023-04-01T22:26:44;1011.2;;;7;82.2
74433;BME280;62865;53.146;23.172;2023-04-01T22:31:11;1011.2;;;6.8;82.1
74433;BME280;62865;53.146;23.172;2023-04-01T22:36:26;1011.3;;;6.6;82.5
74433;BME280;62865;53.146;23.172;2023-04-01T22:41:00;1011.3;;;6.6;82.8
74433;BME280;62865;53.146;23.172;2023-04-01T22:46:46;1011.3;;;6.6;82.4
74433;BME280;62865;53.146;23.172;2023-04-01T22:51:04;1011.4;;;6.5;82.4
74433;BME280;62865;53.146;23.172;2023-04-01T22:55:57;1011.5;;;6.4;82.6
74433;BME280;62865;53.146;23.172;2023-04-01T23:01:25;1011.5;;;6.4;82.4
74433;BME280;62865;53.146;23.172;2023-04-01T23:05:58;1011.5;;;6.4;82.2
74433;BME280;62865;53.146;23.172;2023-04-01T23:11:43;1011.6;;;6.4;82.3
74433;BME280;62865;53.146;23.172;2023-04-01T23:16:05;1011.6;;;6.3;82.6
74433;BME280;62865;53.146;23.172;2023-04-01T23:21:13;1011.7;;;6.4;82.6
74433;BME280;62865;53.146;23.172;2023-04-01T23:26:24;1011.7;;;6.4;82
74433;BME280;62865;53.146;23.172;2023-04-01T23:31:27;1011.8;;;6.3;82
74433;BME280;62865;53.146;23.172;2023-04-01T23:36:40;1011.8;;;6.3;82.2
74433;BME280;62865;53.146;23.172;2023-04-01T23:40:57;1011.8;;;6.3;82.2
74433;BME280;62865;53.146;23.172;2023-04-01T23:45:57;1012;;;6.1;81.9
74433;BME280;62865;53.146;23.172;2023-04-01T23:51:25;1012;;;6;82.3
74433;BME280;62865;53.146;23.172;2023-04-01T23:56:17;1012;;;6;82.3
